sensor_id;sensor_type;location;lat;lon;timestamp;temperature;humidity
25732;DHT22;13585;50.864;4.406;2023-05-21T00:02:08;23.50;54.10
25732;DHT22;13585;50.864;4.406;2023-05-21T00:04:38;23.50;54.10
25732;DHT22;13585;50.864;4.406;2023-05-21T00:07:07;23.50;54.10
25732;DHT22;13585;50.864;4.406;2023-05-21T00:09:34;23.50;54.10
25732;DHT22;13585;50.864;4.406;2023-05-21T00:12:00;23.50;54.00
25732;DHT22;13585;50.864;4.406;2023-05-21T00:14:25;23.50;54.00
25732;DHT22;13585;50.864;4.406;2023-05-21T00:16:51;23.50;54.00
25732;DHT22;13585;50.864;4.406;2023-05-21T00:19:16;23.40;53.90
25732;DHT22;13585;50.864;4.406;2023-05-21T00:21:42;23.40;53.90
25732;DHT22;13585;50.864;4.406;2023-05-21T00:24:10;23.50;53.90
25732;DHT22;13585;50.864;4.406;2023-05-21T00:26:36;23.40;53.80
25732;DHT22;13585;50.864;4.406;2023-05-21T00:29:02;23.40;53.80
25732;DHT22;13585;50.864;4.406;2023-05-21T00:31:27;23.40;53.80
25732;DHT22;13585;50.864;4.406;2023-05-21T00:33:53;23.40;53.80
25732;DHT22;13585;50.864;4.406;2023-05-21T00:36:18;23.40;53.70
25732;DHT22;13585;50.864;4.406;2023-05-21T00:38:48;23.40;53.70
25732;DHT22;13585;50.864;4.406;2023-05-21T00:41:15;23.40;53.70
25732;DHT22;13585;50.864;4.406;2023-05-21T00:43:41;23.40;53.60
25732;DHT22;13585;50.864;4.406;2023-05-21T00:46:12;23.40;53.60
25732;DHT22;13585;50.864;4.406;2023-05-21T00:48:38;23.40;53.60
25732;DHT22;13585;50.864;4.406;2023-05-21T00:51:05;23.40;53.60
25732;DHT22;13585;50.864;4.406;2023-05-21T00:53:31;23.40;53.60
25732;DHT22;13585;50.864;4.406;2023-05-21T00:55:59;23.40;53.60
25732;DHT22;13585;50.864;4.406;2023-05-21T00:58:25;23.40;53.50
25732;DHT22;13585;50.864;4.406;2023-05-21T01:00:51;23.40;53.50
25732;DHT22;13585;50.864;4.406;2023-05-21T01:03:21;23.40;53.50
25732;DHT22;13585;50.864;4.406;2023-05-21T01:05:50;23.40;53.40
25732;DHT22;13585;50.864;4.406;2023-05-21T01:08:18;23.50;53.50
25732;DHT22;13585;50.864;4.406;2023-05-21T01:10:47;23.40;53.40
25732;DHT22;13585;50.864;4.406;2023-05-21T01:13:13;23.40;53.40
25732;DHT22;13585;50.864;4.406;2023-05-21T01:15:42;23.40;53.40
25732;DHT22;13585;50.864;4.406;2023-05-21T01:20:43;23.40;53.30
25732;DHT22;13585;50.864;4.406;2023-05-21T01:23:15;23.40;53.30
25732;DHT22;13585;50.864;4.406;2023-05-21T01:25:41;23.40;53.30
25732;DHT22;13585;50.864;4.406;2023-05-21T01:28:07;23.40;53.30
25732;DHT22;13585;50.864;4.406;2023-05-21T01:30:33;23.40;53.20
25732;DHT22;13585;50.864;4.406;2023-05-21T01:38:40;23.40;53.20
25732;DHT22;13585;50.864;4.406;2023-05-21T01:41:10;23.40;53.20
25732;DHT22;13585;50.864;4.406;2023-05-21T01:43:38;23.40;53.20
25732;DHT22;13585;50.864;4.406;2023-05-21T01:46:08;23.40;53.20
25732;DHT22;13585;50.864;4.406;2023-05-21T01:48:35;23.40;53.20
25732;DHT22;13585;50.864;4.406;2023-05-21T01:51:05;23.40;53.20
25732;DHT22;13585;50.864;4.406;2023-05-21T01:53:31;23.40;53.20
25732;DHT22;13585;50.864;4.406;2023-05-21T01:55:57;23.40;53.20
25732;DHT22;13585;50.864;4.406;2023-05-21T01:58:24;23.40;53.10
25732;DHT22;13585;50.864;4.406;2023-05-21T02:00:49;23.40;53.10
25732;DHT22;13585;50.864;4.406;2023-05-21T02:03:19;23.40;53.10
25732;DHT22;13585;50.864;4.406;2023-05-21T02:05:45;23.40;53.10
25732;DHT22;13585;50.864;4.406;2023-05-21T02:08:11;23.40;53.10
25732;DHT22;13585;50.864;4.406;2023-05-21T02:10:39;23.40;53.00
25732;DHT22;13585;50.864;4.406;2023-05-21T02:13:05;23.40;53.00
25732;DHT22;13585;50.864;4.406;2023-05-21T02:15:30;23.40;53.00
25732;DHT22;13585;50.864;4.406;2023-05-21T02:17:58;23.40;53.00
25732;DHT22;13585;50.864;4.406;2023-05-21T02:20:24;23.40;53.00
25732;DHT22;13585;50.864;4.406;2023-05-21T02:22:50;23.30;52.90
25732;DHT22;13585;50.864;4.406;2023-05-21T02:25:17;23.30;52.90
25732;DHT22;13585;50.864;4.406;2023-05-21T02:27:44;23.40;53.00
25732;DHT22;13585;50.864;4.406;2023-05-21T02:30:13;23.30;52.80
25732;DHT22;13585;50.864;4.406;2023-05-21T02:32:39;23.30;52.80
25732;DHT22;13585;50.864;4.406;2023-05-21T02:35:08;23.40;53.40
25732;DHT22;13585;50.864;4.406;2023-05-21T02:37:34;23.40;52.90
25732;DHT22;13585;50.864;4.406;2023-05-21T02:40:03;23.40;52.80
25732;DHT22;13585;50.864;4.406;2023-05-21T02:42:30;23.40;52.80
25732;DHT22;13585;50.864;4.406;2023-05-21T02:44:56;23.30;52.70
25732;DHT22;13585;50.864;4.406;2023-05-21T02:47:22;23.30;52.70
25732;DHT22;13585;50.864;4.406;2023-05-21T02:49:49;23.30;52.70
25732;DHT22;13585;50.864;4.406;2023-05-21T02:52:16;23.40;52.80
25732;DHT22;13585;50.864;4.406;2023-05-21T02:54:46;23.30;52.70
25732;DHT22;13585;50.864;4.406;2023-05-21T02:57:12;23.30;52.60
25732;DHT22;13585;50.864;4.406;2023-05-21T02:59:38;23.30;52.70
25732;DHT22;13585;50.864;4.406;2023-05-21T03:02:03;23.30;52.70
25732;DHT22;13585;50.864;4.406;2023-05-21T03:04:29;23.30;52.60
25732;DHT22;13585;50.864;4.406;2023-05-21T03:06:55;23.30;52.60
25732;DHT22;13585;50.864;4.406;2023-05-21T03:09:21;23.40;52.60
25732;DHT22;13585;50.864;4.406;2023-05-21T03:11:48;23.30;52.60
25732;DHT22;13585;50.864;4.406;2023-05-21T03:14:13;23.40;52.60
25732;DHT22;13585;50.864;4.406;2023-05-21T03:16:40;23.30;52.50
25732;DHT22;13585;50.864;4.406;2023-05-21T03:19:08;23.30;52.50
25732;DHT22;13585;50.864;4.406;2023-05-21T03:21:34;23.30;52.50
25732;DHT22;13585;50.864;4.406;2023-05-21T03:24:01;23.30;52.50
25732;DHT22;13585;50.864;4.406;2023-05-21T03:26:27;23.30;52.50
25732;DHT22;13585;50.864;4.406;2023-05-21T03:28:56;23.30;52.50
25732;DHT22;13585;50.864;4.406;2023-05-21T03:31:22;23.30;52.50
25732;DHT22;13585;50.864;4.406;2023-05-21T03:33:49;23.30;52.50
25732;DHT22;13585;50.864;4.406;2023-05-21T03:36:15;23.30;52.40
25732;DHT22;13585;50.864;4.406;2023-05-21T03:38:41;23.30;52.50
25732;DHT22;13585;50.864;4.406;2023-05-21T03:41:07;23.30;52.40
25732;DHT22;13585;50.864;4.406;2023-05-21T03:43:33;23.30;52.40
25732;DHT22;13585;50.864;4.406;2023-05-21T03:45:58;23.30;52.40
25732;DHT22;13585;50.864;4.406;2023-05-21T03:48:24;23.30;52.40
25732;DHT22;13585;50.864;4.406;2023-05-21T03:50:50;23.30;52.40
25732;DHT22;13585;50.864;4.406;2023-05-21T03:53:16;23.40;52.40
25732;DHT22;13585;50.864;4.406;2023-05-21T03:55:42;23.30;52.40
25732;DHT22;13585;50.864;4.406;2023-05-21T03:58:08;23.30;52.30
25732;DHT22;13585;50.864;4.406;2023-05-21T04:00:35;23.30;52.30
25732;DHT22;13585;50.864;4.406;2023-05-21T04:03:02;23.30;52.30
25732;DHT22;13585;50.864;4.406;2023-05-21T04:05:28;23.30;52.30
25732;DHT22;13585;50.864;4.406;2023-05-21T04:07:53;23.30;52.30
25732;DHT22;13585;50.864;4.406;2023-05-21T04:10:19;23.30;52.30
25732;DHT22;13585;50.864;4.406;2023-05-21T04:12:46;23.30;52.30
25732;DHT22;13585;50.864;4.406;2023-05-21T04:15:13;23.30;52.30
25732;DHT22;13585;50.864;4.406;2023-05-21T04:17:43;23.30;52.30
25732;DHT22;13585;50.864;4.406;2023-05-21T04:20:10;23.30;52.20
25732;DHT22;13585;50.864;4.406;2023-05-21T04:22:38;23.30;52.20
25732;DHT22;13585;50.864;4.406;2023-05-21T04:25:04;23.30;52.20
25732;DHT22;13585;50.864;4.406;2023-05-21T04:27:29;23.30;52.30
25732;DHT22;13585;50.864;4.406;2023-05-21T04:29:55;23.30;52.20
25732;DHT22;13585;50.864;4.406;2023-05-21T04:32:22;23.30;52.30
25732;DHT22;13585;50.864;4.406;2023-05-21T04:34:48;23.30;52.20
25732;DHT22;13585;50.864;4.406;2023-05-21T04:37:14;23.30;52.20
25732;DHT22;13585;50.864;4.406;2023-05-21T04:39:42;23.30;52.30
25732;DHT22;13585;50.864;4.406;2023-05-21T04:42:08;23.30;52.20
25732;DHT22;13585;50.864;4.406;2023-05-21T04:47:10;23.30;52.30
25732;DHT22;13585;50.864;4.406;2023-05-21T04:49:38;23.30;52.30
25732;DHT22;13585;50.864;4.406;2023-05-21T04:52:04;23.30;52.30
25732;DHT22;13585;50.864;4.406;2023-05-21T04:54:30;23.30;52.30
25732;DHT22;13585;50.864;4.406;2023-05-21T04:56:55;23.30;52.30
25732;DHT22;13585;50.864;4.406;2023-05-21T04:59:22;23.30;52.30
25732;DHT22;13585;50.864;4.406;2023-05-21T05:01:47;23.30;52.30
25732;DHT22;13585;50.864;4.406;2023-05-21T05:04:13;23.30;52.30
25732;DHT22;13585;50.864;4.406;2023-05-21T05:06:39;23.30;52.30
25732;DHT22;13585;50.864;4.406;2023-05-21T05:09:04;23.30;52.30
25732;DHT22;13585;50.864;4.406;2023-05-21T05:11:30;23.30;52.30
25732;DHT22;13585;50.864;4.406;2023-05-21T05:13:56;23.30;52.30
25732;DHT22;13585;50.864;4.406;2023-05-21T05:16:21;23.30;52.30
25732;DHT22;13585;50.864;4.406;2023-05-21T05:18:53;23.30;52.30
25732;DHT22;13585;50.864;4.406;2023-05-21T05:21:20;23.30;52.40
25732;DHT22;13585;50.864;4.406;2023-05-21T05:23:46;23.30;52.30
25732;DHT22;13585;50.864;4.406;2023-05-21T05:26:11;23.30;52.40
25732;DHT22;13585;50.864;4.406;2023-05-21T05:28:37;23.30;52.40
25732;DHT22;13585;50.864;4.406;2023-05-21T05:31:02;23.30;52.40
25732;DHT22;13585;50.864;4.406;2023-05-21T05:33:28;23.30;52.40
25732;DHT22;13585;50.864;4.406;2023-05-21T05:35:54;23.30;52.50
25732;DHT22;13585;50.864;4.406;2023-05-21T05:38:19;23.30;52.50
25732;DHT22;13585;50.864;4.406;2023-05-21T05:40:45;23.30;52.50
25732;DHT22;13585;50.864;4.406;2023-05-21T05:43:10;23.30;52.50
25732;DHT22;13585;50.864;4.406;2023-05-21T05:45:36;23.30;52.50
25732;DHT22;13585;50.864;4.406;2023-05-21T05:48:02;23.30;52.50
25732;DHT22;13585;50.864;4.406;2023-05-21T05:50:27;23.30;52.50
25732;DHT22;13585;50.864;4.406;2023-05-21T05:52:53;23.30;52.60
25732;DHT22;13585;50.864;4.406;2023-05-21T05:55:19;23.30;52.60
25732;DHT22;13585;50.864;4.406;2023-05-21T05:57:46;23.30;52.60
25732;DHT22;13585;50.864;4.406;2023-05-21T06:00:12;23.30;52.60
25732;DHT22;13585;50.864;4.406;2023-05-21T06:02:38;23.30;52.60
25732;DHT22;13585;50.864;4.406;2023-05-21T06:05:04;23.20;52.60
25732;DHT22;13585;50.864;4.406;2023-05-21T06:07:31;23.30;52.70
25732;DHT22;13585;50.864;4.406;2023-05-21T06:09:57;23.30;52.70
25732;DHT22;13585;50.864;4.406;2023-05-21T06:12:24;23.30;52.70
25732;DHT22;13585;50.864;4.406;2023-05-21T06:14:50;23.30;52.70
25732;DHT22;13585;50.864;4.406;2023-05-21T06:17:15;23.30;52.80
25732;DHT22;13585;50.864;4.406;2023-05-21T06:19:41;23.30;52.80
25732;DHT22;13585;50.864;4.406;2023-05-21T06:22:07;23.30;52.80
25732;DHT22;13585;50.864;4.406;2023-05-21T06:24:32;23.30;52.80
25732;DHT22;13585;50.864;4.406;2023-05-21T06:26:58;23.30;52.80
25732;DHT22;13585;50.864;4.406;2023-05-21T06:29:23;23.30;52.80
25732;DHT22;13585;50.864;4.406;2023-05-21T06:31:49;23.30;52.90
25732;DHT22;13585;50.864;4.406;2023-05-21T06:34:15;23.30;52.90
25732;DHT22;13585;50.864;4.406;2023-05-21T06:36:40;23.30;52.90
25732;DHT22;13585;50.864;4.406;2023-05-21T06:39:06;23.30;52.90
25732;DHT22;13585;50.864;4.406;2023-05-21T06:41:32;23.30;52.90
25732;DHT22;13585;50.864;4.406;2023-05-21T06:43:58;23.20;52.80
25732;DHT22;13585;50.864;4.406;2023-05-21T06:46:23;23.30;52.90
25732;DHT22;13585;50.864;4.406;2023-05-21T06:48:49;23.30;52.90
25732;DHT22;13585;50.864;4.406;2023-05-21T06:51:14;23.30;52.90
25732;DHT22;13585;50.864;4.406;2023-05-21T06:53:40;23.30;52.90
25732;DHT22;13585;50.864;4.406;2023-05-21T06:56:06;23.30;52.90
25732;DHT22;13585;50.864;4.406;2023-05-21T06:58:31;23.30;52.90
25732;DHT22;13585;50.864;4.406;2023-05-21T07:00:58;23.30;52.90
25732;DHT22;13585;50.864;4.406;2023-05-21T07:03:24;23.30;52.90
25732;DHT22;13585;50.864;4.406;2023-05-21T07:05:50;23.30;52.90
25732;DHT22;13585;50.864;4.406;2023-05-21T07:11:54;23.20;53.00
25732;DHT22;13585;50.864;4.406;2023-05-21T07:17:12;23.30;52.90
25732;DHT22;13585;50.864;4.406;2023-05-21T07:26:24;23.30;53.00
25732;DHT22;13585;50.864;4.406;2023-05-21T07:29:03;23.30;53.00
25732;DHT22;13585;50.864;4.406;2023-05-21T07:31:28;23.30;53.10
25732;DHT22;13585;50.864;4.406;2023-05-21T07:33:54;23.30;53.00
25732;DHT22;13585;50.864;4.406;2023-05-21T07:36:19;23.30;53.10
25732;DHT22;13585;50.864;4.406;2023-05-21T07:38:45;23.30;53.10
25732;DHT22;13585;50.864;4.406;2023-05-21T07:41:11;23.30;53.10
25732;DHT22;13585;50.864;4.406;2023-05-21T07:43:37;23.40;53.10
25732;DHT22;13585;50.864;4.406;2023-05-21T07:46:03;23.30;53.10
25732;DHT22;13585;50.864;4.406;2023-05-21T07:48:28;23.30;53.10
25732;DHT22;13585;50.864;4.406;2023-05-21T07:50:54;23.30;53.10
25732;DHT22;13585;50.864;4.406;2023-05-21T07:53:21;23.30;53.20
25732;DHT22;13585;50.864;4.406;2023-05-21T07:55:46;23.40;53.20
25732;DHT22;13585;50.864;4.406;2023-05-21T07:58:21;23.30;53.20
25732;DHT22;13585;50.864;4.406;2023-05-21T08:00:49;23.30;53.20
25732;DHT22;13585;50.864;4.406;2023-05-21T08:03:16;23.40;53.20
25732;DHT22;13585;50.864;4.406;2023-05-21T08:10:04;23.30;53.30
25732;DHT22;13585;50.864;4.406;2023-05-21T08:12:31;23.40;53.90
25732;DHT22;13585;50.864;4.406;2023-05-21T08:37:19;23.40;53.50
25732;DHT22;13585;50.864;4.406;2023-05-21T08:39:44;23.30;53.50
25732;DHT22;13585;50.864;4.406;2023-05-21T08:42:32;23.30;53.50
25732;DHT22;13585;50.864;4.406;2023-05-21T08:45:11;23.30;53.70
25732;DHT22;13585;50.864;4.406;2023-05-21T08:47:41;23.30;53.80
25732;DHT22;13585;50.864;4.406;2023-05-21T08:50:10;23.40;53.80
25732;DHT22;13585;50.864;4.406;2023-05-21T08:52:36;23.40;53.90
25732;DHT22;13585;50.864;4.406;2023-05-21T08:55:05;23.40;53.90
25732;DHT22;13585;50.864;4.406;2023-05-21T08:57:31;23.30;53.90
25732;DHT22;13585;50.864;4.406;2023-05-21T08:59:58;23.40;54.00
25732;DHT22;13585;50.864;4.406;2023-05-21T09:02:24;23.40;54.00
25732;DHT22;13585;50.864;4.406;2023-05-21T09:04:51;23.40;54.10
25732;DHT22;13585;50.864;4.406;2023-05-21T09:07:24;23.40;54.20
25732;DHT22;13585;50.864;4.406;2023-05-21T09:09:56;23.40;54.20
25732;DHT22;13585;50.864;4.406;2023-05-21T09:12:24;23.40;54.30
25732;DHT22;13585;50.864;4.406;2023-05-21T09:14:52;23.40;54.40
25732;DHT22;13585;50.864;4.406;2023-05-21T09:17:18;23.40;54.40
25732;DHT22;13585;50.864;4.406;2023-05-21T09:20:07;23.40;54.50
25732;DHT22;13585;50.864;4.406;2023-05-21T09:22:49;23.40;54.60
25732;DHT22;13585;50.864;4.406;2023-05-21T09:25:17;23.40;54.50
25732;DHT22;13585;50.864;4.406;2023-05-21T09:27:43;23.40;54.60
25732;DHT22;13585;50.864;4.406;2023-05-21T09:30:11;23.40;54.70
25732;DHT22;13585;50.864;4.406;2023-05-21T09:32:37;23.40;54.80
25732;DHT22;13585;50.864;4.406;2023-05-21T09:35:10;23.50;54.90
25732;DHT22;13585;50.864;4.406;2023-05-21T09:37:44;23.40;54.90
25732;DHT22;13585;50.864;4.406;2023-05-21T09:40:16;23.40;54.90
25732;DHT22;13585;50.864;4.406;2023-05-21T09:45:25;23.50;55.00
25732;DHT22;13585;50.864;4.406;2023-05-21T09:47:52;23.50;55.20
25732;DHT22;13585;50.864;4.406;2023-05-21T09:50:20;23.50;55.20
25732;DHT22;13585;50.864;4.406;2023-05-21T09:52:54;23.50;55.20
25732;DHT22;13585;50.864;4.406;2023-05-21T09:55:25;23.50;55.20
25732;DHT22;13585;50.864;4.406;2023-05-21T09:57:51;23.50;55.40
25732;DHT22;13585;50.864;4.406;2023-05-21T10:00:20;23.50;55.40
25732;DHT22;13585;50.864;4.406;2023-05-21T10:02:49;23.50;55.50
25732;DHT22;13585;50.864;4.406;2023-05-21T10:05:18;23.50;55.50
25732;DHT22;13585;50.864;4.406;2023-05-21T10:07:49;23.50;55.50
25732;DHT22;13585;50.864;4.406;2023-05-21T10:10:17;23.50;55.60
25732;DHT22;13585;50.864;4.406;2023-05-21T10:12:46;23.50;55.60
25732;DHT22;13585;50.864;4.406;2023-05-21T10:15:13;23.50;55.70
25732;DHT22;13585;50.864;4.406;2023-05-21T10:17:42;23.50;55.80
25732;DHT22;13585;50.864;4.406;2023-05-21T10:20:09;23.50;55.80
25732;DHT22;13585;50.864;4.406;2023-05-21T10:22:36;23.50;55.90
25732;DHT22;13585;50.864;4.406;2023-05-21T10:25:02;23.50;55.90
25732;DHT22;13585;50.864;4.406;2023-05-21T10:59:45;23.50;57.10
25732;DHT22;13585;50.864;4.406;2023-05-21T11:14:39;23.60;57.50
25732;DHT22;13585;50.864;4.406;2023-05-21T11:47:13;23.60;58.10
25732;DHT22;13585;50.864;4.406;2023-05-21T11:49:56;23.60;58.20
25732;DHT22;13585;50.864;4.406;2023-05-21T11:52:22;23.50;58.30
25732;DHT22;13585;50.864;4.406;2023-05-21T12:00:00;23.60;58.40
25732;DHT22;13585;50.864;4.406;2023-05-21T12:02:30;23.60;58.40
25732;DHT22;13585;50.864;4.406;2023-05-21T12:04:55;23.60;58.40
25732;DHT22;13585;50.864;4.406;2023-05-21T12:22:56;23.70;58.50
25732;DHT22;13585;50.864;4.406;2023-05-21T12:25:23;23.70;58.50
25732;DHT22;13585;50.864;4.406;2023-05-21T12:32:59;23.70;58.60
25732;DHT22;13585;50.864;4.406;2023-05-21T12:35:26;23.70;58.60
25732;DHT22;13585;50.864;4.406;2023-05-21T12:37:52;23.70;58.70
25732;DHT22;13585;50.864;4.406;2023-05-21T12:40:18;23.70;58.60
25732;DHT22;13585;50.864;4.406;2023-05-21T12:42:44;23.70;58.70
25732;DHT22;13585;50.864;4.406;2023-05-21T12:45:10;23.70;58.70
25732;DHT22;13585;50.864;4.406;2023-05-21T12:47:36;23.80;58.70
25732;DHT22;13585;50.864;4.406;2023-05-21T12:50:06;23.70;58.70
25732;DHT22;13585;50.864;4.406;2023-05-21T12:52:32;23.70;58.70
25732;DHT22;13585;50.864;4.406;2023-05-21T12:54:59;23.70;58.70
25732;DHT22;13585;50.864;4.406;2023-05-21T12:57:26;23.80;58.80
25732;DHT22;13585;50.864;4.406;2023-05-21T12:59:57;23.80;58.80
25732;DHT22;13585;50.864;4.406;2023-05-21T13:02:33;23.80;58.90
25732;DHT22;13585;50.864;4.406;2023-05-21T13:05:00;23.70;58.80
25732;DHT22;13585;50.864;4.406;2023-05-21T13:07:29;23.80;58.80
25732;DHT22;13585;50.864;4.406;2023-05-21T13:09:55;23.80;58.80
25732;DHT22;13585;50.864;4.406;2023-05-21T13:12:22;23.80;58.80
25732;DHT22;13585;50.864;4.406;2023-05-21T13:14:53;23.80;58.80
25732;DHT22;13585;50.864;4.406;2023-05-21T13:17:20;23.80;58.90
25732;DHT22;13585;50.864;4.406;2023-05-21T13:20:20;23.80;58.90
25732;DHT22;13585;50.864;4.406;2023-05-21T13:22:48;23.80;58.90
25732;DHT22;13585;50.864;4.406;2023-05-21T13:25:24;23.80;58.80
25732;DHT22;13585;50.864;4.406;2023-05-21T13:27:53;23.80;58.90
25732;DHT22;13585;50.864;4.406;2023-05-21T13:30:19;23.80;58.90
25732;DHT22;13585;50.864;4.406;2023-05-21T13:32:46;23.80;59.50
25732;DHT22;13585;50.864;4.406;2023-05-21T13:35:12;23.80;58.90
25732;DHT22;13585;50.864;4.406;2023-05-21T13:37:40;23.80;58.90
25732;DHT22;13585;50.864;4.406;2023-05-21T13:40:07;23.80;58.90
25732;DHT22;13585;50.864;4.406;2023-05-21T13:42:35;23.80;58.90
25732;DHT22;13585;50.864;4.406;2023-05-21T13:45:03;23.80;58.90
25732;DHT22;13585;50.864;4.406;2023-05-21T13:47:29;23.80;58.90
25732;DHT22;13585;50.864;4.406;2023-05-21T13:49:54;23.80;58.90
25732;DHT22;13585;50.864;4.406;2023-05-21T13:52:20;23.80;58.90
25732;DHT22;13585;50.864;4.406;2023-05-21T13:54:46;23.90;58.90
25732;DHT22;13585;50.864;4.406;2023-05-21T13:57:11;23.80;58.90
25732;DHT22;13585;50.864;4.406;2023-05-21T13:59:37;23.90;59.00
25732;DHT22;13585;50.864;4.406;2023-05-21T14:02:05;23.80;58.90
25732;DHT22;13585;50.864;4.406;2023-05-21T14:04:30;23.90;59.00
25732;DHT22;13585;50.864;4.406;2023-05-21T14:06:56;23.90;59.00
25732;DHT22;13585;50.864;4.406;2023-05-21T14:09:22;23.90;59.00
25732;DHT22;13585;50.864;4.406;2023-05-21T14:14:29;23.90;59.10
25732;DHT22;13585;50.864;4.406;2023-05-21T14:17:01;23.90;59.10
25732;DHT22;13585;50.864;4.406;2023-05-21T14:19:26;23.90;59.20
25732;DHT22;13585;50.864;4.406;2023-05-21T14:21:52;23.90;59.10
25732;DHT22;13585;50.864;4.406;2023-05-21T14:24:18;23.90;59.20
25732;DHT22;13585;50.864;4.406;2023-05-21T14:26:44;23.90;59.20
25732;DHT22;13585;50.864;4.406;2023-05-21T14:29:13;23.90;59.20
25732;DHT22;13585;50.864;4.406;2023-05-21T14:31:38;23.90;59.20
25732;DHT22;13585;50.864;4.406;2023-05-21T14:34:04;23.90;59.20
25732;DHT22;13585;50.864;4.406;2023-05-21T14:36:32;23.90;59.20
25732;DHT22;13585;50.864;4.406;2023-05-21T14:38:57;23.90;59.30
25732;DHT22;13585;50.864;4.406;2023-05-21T14:41:24;23.90;59.20
25732;DHT22;13585;50.864;4.406;2023-05-21T14:43:51;24.00;59.30
25732;DHT22;13585;50.864;4.406;2023-05-21T14:46:16;24.00;59.40
25732;DHT22;13585;50.864;4.406;2023-05-21T14:48:42;24.00;59.30
25732;DHT22;13585;50.864;4.406;2023-05-21T14:51:09;24.00;59.40
25732;DHT22;13585;50.864;4.406;2023-05-21T14:56:28;24.00;59.40
25732;DHT22;13585;50.864;4.406;2023-05-21T15:02:42;24.00;59.50
25732;DHT22;13585;50.864;4.406;2023-05-21T15:11:51;24.00;59.40
25732;DHT22;13585;50.864;4.406;2023-05-21T15:14:20;24.10;59.50
25732;DHT22;13585;50.864;4.406;2023-05-21T15:24:32;24.00;59.70
25732;DHT22;13585;50.864;4.406;2023-05-21T15:26:57;24.00;59.70
25732;DHT22;13585;50.864;4.406;2023-05-21T15:29:23;24.10;59.70
25732;DHT22;13585;50.864;4.406;2023-05-21T15:31:49;24.10;59.70
25732;DHT22;13585;50.864;4.406;2023-05-21T15:34:14;24.10;59.70
25732;DHT22;13585;50.864;4.406;2023-05-21T15:36:42;24.10;59.70
25732;DHT22;13585;50.864;4.406;2023-05-21T15:39:07;24.10;59.70
25732;DHT22;13585;50.864;4.406;2023-05-21T15:41:36;24.10;59.80
25732;DHT22;13585;50.864;4.406;2023-05-21T15:44:02;24.00;59.70
25732;DHT22;13585;50.864;4.406;2023-05-21T15:46:28;24.10;59.70
25732;DHT22;13585;50.864;4.406;2023-05-21T15:48:54;24.10;59.70
25732;DHT22;13585;50.864;4.406;2023-05-21T15:51:19;24.10;59.70
25732;DHT22;13585;50.864;4.406;2023-05-21T15:53:45;24.10;59.70
25732;DHT22;13585;50.864;4.406;2023-05-21T15:56:10;24.10;59.70
25732;DHT22;13585;50.864;4.406;2023-05-21T15:58:36;24.10;59.70
25732;DHT22;13585;50.864;4.406;2023-05-21T16:01:02;24.10;59.70
25732;DHT22;13585;50.864;4.406;2023-05-21T16:03:27;24.10;59.70
25732;DHT22;13585;50.864;4.406;2023-05-21T16:05:53;24.10;59.70
25732;DHT22;13585;50.864;4.406;2023-05-21T16:08:19;24.10;59.70
25732;DHT22;13585;50.864;4.406;2023-05-21T16:10:44;24.10;59.70
25732;DHT22;13585;50.864;4.406;2023-05-21T16:13:10;24.10;59.70
25732;DHT22;13585;50.864;4.406;2023-05-21T16:15:36;24.10;59.70
25732;DHT22;13585;50.864;4.406;2023-05-21T16:18:02;24.10;59.70
25732;DHT22;13585;50.864;4.406;2023-05-21T16:20:27;24.10;59.70
25732;DHT22;13585;50.864;4.406;2023-05-21T16:22:55;24.20;59.80
25732;DHT22;13585;50.864;4.406;2023-05-21T16:25:20;24.10;59.70
25732;DHT22;13585;50.864;4.406;2023-05-21T16:27:47;24.20;59.80
25732;DHT22;13585;50.864;4.406;2023-05-21T16:30:13;24.10;59.70
25732;DHT22;13585;50.864;4.406;2023-05-21T16:32:38;24.10;59.70
25732;DHT22;13585;50.864;4.406;2023-05-21T16:35:05;24.20;59.80
25732;DHT22;13585;50.864;4.406;2023-05-21T16:37:31;24.20;59.70
25732;DHT22;13585;50.864;4.406;2023-05-21T16:39:56;24.20;59.70
25732;DHT22;13585;50.864;4.406;2023-05-21T16:42:22;24.20;59.70
25732;DHT22;13585;50.864;4.406;2023-05-21T16:44:48;24.20;59.70
25732;DHT22;13585;50.864;4.406;2023-05-21T16:47:13;24.20;59.70
25732;DHT22;13585;50.864;4.406;2023-05-21T16:49:39;24.20;59.70
25732;DHT22;13585;50.864;4.406;2023-05-21T16:52:05;24.20;59.70
25732;DHT22;13585;50.864;4.406;2023-05-21T16:54:31;24.20;59.70
25732;DHT22;13585;50.864;4.406;2023-05-21T16:56:57;24.20;59.70
25732;DHT22;13585;50.864;4.406;2023-05-21T16:59:23;24.10;59.60
25732;DHT22;13585;50.864;4.406;2023-05-21T17:01:48;24.20;59.60
25732;DHT22;13585;50.864;4.406;2023-05-21T17:04:14;24.20;59.60
25732;DHT22;13585;50.864;4.406;2023-05-21T17:06:40;24.20;59.60
25732;DHT22;13585;50.864;4.406;2023-05-21T17:09:05;24.20;59.60
25732;DHT22;13585;50.864;4.406;2023-05-21T17:11:31;24.20;59.60
25732;DHT22;13585;50.864;4.406;2023-05-21T17:13:57;24.30;59.60
25732;DHT22;13585;50.864;4.406;2023-05-21T17:16:22;24.20;59.60
25732;DHT22;13585;50.864;4.406;2023-05-21T17:18:49;24.20;59.50
25732;DHT22;13585;50.864;4.406;2023-05-21T17:21:15;24.20;59.50
25732;DHT22;13585;50.864;4.406;2023-05-21T17:23:41;24.20;59.50
25732;DHT22;13585;50.864;4.406;2023-05-21T17:26:07;24.20;59.50
25732;DHT22;13585;50.864;4.406;2023-05-21T17:28:34;24.20;59.50
25732;DHT22;13585;50.864;4.406;2023-05-21T17:31:01;24.20;59.50
25732;DHT22;13585;50.864;4.406;2023-05-21T17:33:27;24.20;59.50
25732;DHT22;13585;50.864;4.406;2023-05-21T17:35:52;24.20;59.50
25732;DHT22;13585;50.864;4.406;2023-05-21T17:38:21;24.20;59.50
25732;DHT22;13585;50.864;4.406;2023-05-21T17:40:46;24.20;59.50
25732;DHT22;13585;50.864;4.406;2023-05-21T17:43:13;24.20;59.50
25732;DHT22;13585;50.864;4.406;2023-05-21T17:59:38;24.30;59.70
25732;DHT22;13585;50.864;4.406;2023-05-21T18:02:05;24.20;59.80
25732;DHT22;13585;50.864;4.406;2023-05-21T18:04:34;24.30;60.30
25732;DHT22;13585;50.864;4.406;2023-05-21T18:06:59;24.20;60.50
25732;DHT22;13585;50.864;4.406;2023-05-21T18:09:25;24.30;60.80
25732;DHT22;13585;50.864;4.406;2023-05-21T18:11:51;24.20;60.90
25732;DHT22;13585;50.864;4.406;2023-05-21T18:14:17;24.20;61.20
25732;DHT22;13585;50.864;4.406;2023-05-21T18:16:42;24.30;61.60
25732;DHT22;13585;50.864;4.406;2023-05-21T18:19:08;24.30;61.70
25732;DHT22;13585;50.864;4.406;2023-05-21T18:21:34;24.30;61.90
25732;DHT22;13585;50.864;4.406;2023-05-21T18:24:00;24.30;62.00
25732;DHT22;13585;50.864;4.406;2023-05-21T18:28:51;24.30;62.20
25732;DHT22;13585;50.864;4.406;2023-05-21T18:31:17;24.30;62.00
25732;DHT22;13585;50.864;4.406;2023-05-21T18:33:43;24.30;61.80
25732;DHT22;13585;50.864;4.406;2023-05-21T18:36:09;24.30;61.70
25732;DHT22;13585;50.864;4.406;2023-05-21T18:38:34;24.30;61.50
25732;DHT22;13585;50.864;4.406;2023-05-21T18:48:46;24.30;61.30
25732;DHT22;13585;50.864;4.406;2023-05-21T18:51:13;24.30;61.40